Time,TemperatureF,DewpointF,PressureIn,WindDirection,WindDirectionDegrees,WindSpeedMPH,WindSpeedGustMPH,Humidity,HourlyPrecipIn,Conditions,Clouds,dailyrainin,SoftwareType,DateUTC
2013-08-19 00:01:00,64.0,56.3,29.66,SW,223,3.1,4.0,76,0.00,,SCT250,0.00,VWS V14.01,2013-08-19 04:01:00,
2013-08-19 00:04:00,64.2,56.5,29.66,SSW,203,2.7,4.0,76,0.00,,SCT250,0.00,VWS V14.01,2013-08-19 04:04:00,
2013-08-19 00:05:00,64.2,56.5,29.66,SSW,207,3.1,4.0,76,0.00,,SCT250,0.00,VWS V14.01,2013-08-19 04:05:00,
2013-08-19 00:07:00,64.4,56.7,29.66,SW,231,3.6,5.4,76,0.00,,SCT250,0.00,VWS V14.01,2013-08-19 04:07:00,
2013-08-19 00:12:00,64.4,56.7,29.66,SW,226,4.0,5.8,76,0.00,,SCT250,0.00,VWS V14.01,2013-08-19 04:12:00,
2013-08-19 00:17:00,64.6,57.2,29.66,SW,223,4.0,4.9,77,0.00,,SCT250,0.00,VWS V14.01,2013-08-19 04:17:00,
2013-08-19 00:22:00,64.6,57.2,29.66,West,265,5.4,6.3,77,0.00,,SCT250,0.00,VWS V14.01,2013-08-19 04:22:00,
2013-08-19 00:27:00,64.6,57.2,29.66,SSW,211,4.5,5.8,77,0.00,,SCT250,0.00,VWS V14.01,2013-08-19 04:27:00,
2013-08-19 00:32:00,64.6,57.2,29.66,SSW,207,5.4,5.4,77,0.00,,SCT250,0.00,VWS V14.01,2013-08-19 04:32:00,
2013-08-19 00:37:00,64.6,57.2,29.66,WSW,256,4.0,4.9,77,0.00,,CLR,0.00,VWS V14.01,2013-08-19 04:37:00,
2013-08-19 00:42:00,64.4,57.0,29.66,SSW,192,5.4,5.4,77,0.00,,CLR,0.00,VWS V14.01,2013-08-19 04:42:00,
2013-08-19 00:47:00,64.4,57.0,29.66,SW,216,4.0,5.8,77,0.00,,CLR,0.00,VWS V14.01,2013-08-19 04:47:00,
2013-08-19 00:52:00,64.2,56.9,29.66,SW,217,3.1,5.4,77,0.00,,CLR,0.00,VWS V14.01,2013-08-19 04:52:00,
2013-08-19 00:57:00,64.2,56.9,29.66,WSW,247,4.0,5.4,77,0.00,,CLR,0.00,VWS V14.01,2013-08-19 04:57:00,
2013-08-19 01:02:00,64.0,56.7,29.66,SW,224,3.6,3.6,77,0.00,,CLR,0.00,VWS V14.01,2013-08-19 05:02:00,
2013-08-19 01:08:00,64.2,56.9,29.66,SW,217,5.8,5.8,77,0.00,,CLR,0.00,VWS V14.01,2013-08-19 05:08:00,
2013-08-19 01:13:00,64.0,57.0,29.66,SW,215,5.4,5.4,78,0.00,,CLR,0.00,VWS V14.01,2013-08-19 05:13:00,
2013-08-19 01:18:00,64.0,57.0,29.66,SW,220,5.4,5.8,78,0.00,,CLR,0.00,VWS V14.01,2013-08-19 05:18:00,
2013-08-19 01:23:00,63.9,56.9,29.66,SW,223,4.0,5.8,78,0.00,,CLR,0.00,VWS V14.01,2013-08-19 05:23:00,
2013-08-19 01:28:00,64.0,57.0,29.66,SW,221,3.1,6.7,78,0.00,,CLR,0.00,VWS V14.01,2013-08-19 05:28:00,
2013-08-19 01:33:00,64.0,57.0,29.66,SW,216,3.1,4.0,78,0.00,,CLR,0.00,VWS V14.01,2013-08-19 05:33:00,
2013-08-19 01:38:00,64.0,57.0,29.66,SSW,213,3.6,5.4,78,0.00,,SCT220,0.00,VWS V14.01,2013-08-19 05:38:00,
2013-08-19 01:43:00,63.9,56.9,29.66,SW,231,5.8,5.8,78,0.00,,SCT220,0.00,VWS V14.01,2013-08-19 05:43:00,
2013-08-19 01:48:00,63.5,56.2,29.66,SW,226,2.7,5.4,77,0.00,,SCT220,0.00,VWS V14.01,2013-08-19 05:48:00,
2013-08-19 01:53:00,63.5,56.2,29.66,SSW,213,4.9,4.9,77,0.00,,SCT220,0.00,VWS V14.01,2013-08-19 05:53:00,
2013-08-19 01:58:00,63.7,56.7,29.66,SW,217,3.6,5.4,78,0.00,,SCT220,0.00,VWS V14.01,2013-08-19 05:58:00,
2013-08-19 02:03:00,63.3,56.0,29.66,SSW,203,2.7,4.9,77,0.00,,SCT220,0.00,VWS V14.01,2013-08-19 06:03:00,
2013-08-19 02:08:00,63.1,56.2,29.66,SW,235,4.0,5.8,78,0.00,,SCT220,0.00,VWS V14.01,2013-08-19 06:08:00,
2013-08-19 02:13:00,63.3,56.3,29.66,SW,225,4.0,5.8,78,0.00,,SCT220,0.00,VWS V14.01,2013-08-19 06:13:00,
2013-08-19 02:18:00,63.1,56.2,29.66,WSW,251,3.1,6.3,78,0.00,,SCT220,0.00,VWS V14.01,2013-08-19 06:18:00,
2013-08-19 02:23:00,63.3,56.3,29.66,SW,226,3.1,5.4,78,0.00,,SCT220,0.00,VWS V14.01,2013-08-19 06:23:00,
2013-08-19 02:28:00,63.1,56.2,29.66,WSW,248,3.6,5.8,78,0.00,,SCT220,0.00,VWS V14.01,2013-08-19 06:28:00,
2013-08-19 02:33:00,63.1,56.2,29.66,SW,224,4.0,5.8,78,0.00,,SCT250,0.00,VWS V14.01,2013-08-19 06:33:00,
2013-08-19 02:38:00,63.0,56.0,29.66,SW,231,3.1,3.6,78,0.00,,SCT250,0.00,VWS V14.01,2013-08-19 06:38:00,
2013-08-19 02:43:00,63.1,56.2,29.66,SW,234,4.0,4.5,78,0.00,,SCT250,0.00,VWS V14.01,2013-08-19 06:43:00,
2013-08-19 02:48:00,63.0,56.3,29.66,SW,219,4.9,4.9,79,0.00,,SCT250,0.00,VWS V14.01,2013-08-19 06:48:00,
2013-08-19 02:53:00,63.0,56.3,29.66,SW,222,3.1,4.9,79,0.00,,SCT250,0.00,VWS V14.01,2013-08-19 06:53:00,
2013-08-19 02:58:00,63.0,56.3,29.66,SW,236,4.0,4.0,79,0.00,,SCT250,0.00,VWS V14.01,2013-08-19 06:58:00,
2013-08-19 03:03:00,63.0,56.3,29.66,SW,221,4.0,5.4,79,0.00,,SCT250,0.00,VWS V14.01,2013-08-19 07:03:00,
2013-08-19 03:08:00,63.0,56.3,29.66,SW,225,3.1,4.0,79,0.00,,SCT250,0.00,VWS V14.01,2013-08-19 07:08:00,
2013-08-19 03:13:00,62.6,56.0,29.66,SSW,204,3.6,5.4,79,0.00,,SCT250,0.00,VWS V14.01,2013-08-19 07:13:00,
2013-08-19 03:18:00,62.6,56.0,29.66,SSW,198,3.1,4.9,79,0.00,,SCT250,0.00,VWS V14.01,2013-08-19 07:18:00,
2013-08-19 03:23:00,62.4,55.8,29.66,SW,227,4.0,5.4,79,0.00,,SCT250,0.00,VWS V14.01,2013-08-19 07:23:00,
2013-08-19 03:28:00,62.6,56.0,29.66,SSW,213,4.0,5.4,79,0.00,,SCT250,0.00,VWS V14.01,2013-08-19 07:28:00,
2013-08-19 03:33:00,62.4,56.2,29.66,WSW,238,3.1,5.4,80,0.00,,SCT250,0.00,VWS V14.01,2013-08-19 07:33:00,
2013-08-19 03:38:00,62.4,56.2,29.66,SW,221,4.0,4.0,80,0.00,,SCT250,0.00,VWS V14.01,2013-08-19 07:38:00,
2013-08-19 03:43:00,62.4,56.2,29.66,SW,220,3.1,5.4,80,0.00,,SCT250,0.00,VWS V14.01,2013-08-19 07:43:00,
2013-08-19 03:48:00,62.2,56.0,29.66,SW,221,4.9,4.9,80,0.00,,SCT250,0.00,VWS V14.01,2013-08-19 07:48:00,
2013-08-19 03:53:00,62.2,56.0,29.63,SW,225,4.0,5.4,80,0.00,,SCT250,0.00,VWS V14.01,2013-08-19 07:53:00,
2013-08-19 03:58:00,62.2,56.0,29.63,SW,216,3.6,4.9,80,0.00,,SCT250,0.00,VWS V14.01,2013-08-19 07:58:00,
2013-08-19 04:03:00,62.2,56.3,29.63,SW,218,5.4,5.4,81,0.00,,SCT250,0.00,VWS V14.01,2013-08-19 08:03:00,
2013-08-19 04:08:00,62.1,55.8,29.63,SW,221,3.1,3.1,80,0.00,,SCT250,0.00,VWS V14.01,2013-08-19 08:08:00,
2013-08-19 04:13:00,61.7,55.5,29.63,WSW,256,2.7,5.8,80,0.00,,SCT250,0.00,VWS V14.01,2013-08-19 08:13:00,
2013-08-19 04:18:00,61.5,55.3,29.63,WSW,247,3.6,4.9,80,0.00,,SCT250,0.00,VWS V14.01,2013-08-19 08:18:00,
2013-08-19 04:23:00,61.9,56.0,29.63,WSW,247,4.0,5.8,81,0.00,,SCT250,0.00,VWS V14.01,2013-08-19 08:23:00,
2013-08-19 04:28:00,61.7,55.8,29.63,WSW,242,4.5,5.4,81,0.00,,SCT250,0.00,VWS V14.01,2013-08-19 08:28:00,
2013-08-19 04:33:00,61.7,55.8,29.63,SW,227,0.0,3.1,81,0.00,,SCT250,0.00,VWS V14.01,2013-08-19 08:33:00,
2013-08-19 04:38:00,61.7,55.8,29.63,SW,227,3.1,4.0,81,0.00,,SCT250,0.00,VWS V14.01,2013-08-19 08:38:00,
2013-08-19 04:43:00,62.1,56.5,29.63,SW,234,4.0,4.9,82,0.00,,SCT250,0.00,VWS V14.01,2013-08-19 08:43:00,
2013-08-19 04:48:00,62.1,56.5,29.63,SW,222,3.6,3.6,82,0.00,,SCT250,0.00,VWS V14.01,2013-08-19 08:48:00,
2013-08-19 04:53:00,61.9,56.3,29.66,SW,227,3.6,4.9,82,0.00,,SCT250,0.00,VWS V14.01,2013-08-19 08:53:00,
2013-08-19 04:58:00,61.9,56.3,29.66,West,269,4.0,4.9,82,0.00,,SCT250,0.00,VWS V14.01,2013-08-19 08:58:00,
2013-08-19 05:04:00,61.9,56.3,29.66,SW,223,3.1,4.9,82,0.00,,SCT250,0.00,VWS V14.01,2013-08-19 09:04:00,
2013-08-19 05:09:00,61.9,56.3,29.66,SW,225,3.1,4.9,82,0.00,,SCT250,0.00,VWS V14.01,2013-08-19 09:09:00,
2013-08-19 05:14:00,61.7,56.2,29.66,SSW,210,4.0,6.3,82,0.00,,SCT250,0.00,VWS V14.01,2013-08-19 09:14:00,
2013-08-19 05:19:00,61.5,56.0,29.66,SW,234,2.7,6.7,82,0.00,,SCT250,0.00,VWS V14.01,2013-08-19 09:19:00,
2013-08-19 05:24:00,61.3,55.8,29.66,WSW,248,3.6,6.3,82,0.00,,SCT250,0.00,VWS V14.01,2013-08-19 09:24:00,
2013-08-19 05:29:00,61.7,56.5,29.66,SW,221,4.9,5.8,83,0.00,,SCT250,0.00,VWS V14.01,2013-08-19 09:29:00,
2013-08-19 05:34:00,61.5,56.3,29.66,SW,232,5.8,5.8,83,0.00,,BKN250,0.00,VWS V14.01,2013-08-19 09:34:00,
2013-08-19 05:39:00,61.7,56.5,29.66,SW,228,4.9,4.9,83,0.00,,BKN250,0.00,VWS V14.01,2013-08-19 09:39:00,
2013-08-19 05:44:00,61.2,55.6,29.66,SW,222,2.7,3.1,82,0.00,,BKN250,0.00,VWS V14.01,2013-08-19 09:44:00,
2013-08-19 05:49:00,61.0,55.1,29.66,SW,227,3.6,3.6,81,0.00,,BKN250,0.00,VWS V14.01,2013-08-19 09:49:00,
2013-08-19 05:54:00,61.2,55.6,29.66,SW,224,3.6,4.0,82,0.00,,BKN250,0.00,VWS V14.01,2013-08-19 09:54:00,
2013-08-19 05:59:00,61.0,55.5,29.66,SW,222,4.9,4.9,82,0.00,,BKN250,0.00,VWS V14.01,2013-08-19 09:59:00,
2013-08-19 06:04:00,61.2,56.0,29.66,SW,222,4.0,4.0,83,0.00,,BKN250,0.00,VWS V14.01,2013-08-19 10:04:00,
2013-08-19 06:09:00,61.0,55.8,29.66,SW,219,3.1,3.6,83,0.00,,BKN250,0.00,VWS V14.01,2013-08-19 10:09:00,
2013-08-19 06:14:00,61.0,55.8,29.66,SW,224,0.0,4.9,83,0.00,,BKN250,0.00,VWS V14.01,2013-08-19 10:14:00,
2013-08-19 06:19:00,60.4,54.9,29.66,SW,224,2.7,3.6,82,0.00,,BKN250,0.00,VWS V14.01,2013-08-19 10:19:00,
2013-08-19 06:24:00,60.1,54.2,29.66,SW,224,0.0,4.0,81,0.00,,BKN250,0.00,VWS V14.01,2013-08-19 10:24:00,
2013-08-19 06:29:00,60.1,54.6,29.66,SW,223,3.6,4.0,82,0.00,,BKN250,0.00,VWS V14.01,2013-08-19 10:29:00,
2013-08-19 06:34:00,60.1,54.6,29.66,SW,224,0.0,4.0,82,0.00,,SCT200,0.00,VWS V14.01,2013-08-19 10:34:00,
2013-08-19 06:39:00,59.7,53.9,29.63,SW,218,0.0,2.2,81,0.00,,SCT200,0.00,VWS V14.01,2013-08-19 10:39:00,
2013-08-19 06:44:00,60.1,54.6,29.63,SW,221,0.0,2.7,82,0.00,,SCT200,0.00,VWS V14.01,2013-08-19 10:44:00,
2013-08-19 06:49:00,59.9,54.4,29.63,SW,226,3.1,3.6,82,0.00,,SCT200,0.00,VWS V14.01,2013-08-19 10:49:00,
2013-08-19 06:54:00,60.1,54.9,29.66,SW,223,0.0,3.1,83,0.00,,SCT200,0.00,VWS V14.01,2013-08-19 10:54:00,
2013-08-19 06:59:00,60.1,54.9,29.66,SW,216,3.6,4.0,83,0.00,,SCT200,0.00,VWS V14.01,2013-08-19 10:59:00,
2013-08-19 07:04:00,60.8,56.3,29.66,WSW,254,3.1,3.1,85,0.00,,SCT200,0.00,VWS V14.01,2013-08-19 11:04:00,
2013-08-19 07:09:00,61.2,57.0,29.63,SW,224,2.7,4.0,86,0.00,,SCT200,0.00,VWS V14.01,2013-08-19 11:09:00,
2013-08-19 07:14:00,61.5,57.6,29.63,SSW,207,3.6,3.6,87,0.00,,SCT200,0.00,VWS V14.01,2013-08-19 11:14:00,
2013-08-19 07:19:00,61.9,58.0,29.63,WSW,242,3.6,4.0,87,0.00,,SCT200,0.00,VWS V14.01,2013-08-19 11:19:00,
2013-08-19 07:24:00,62.1,58.5,29.63,SSW,207,4.0,5.8,88,0.00,,SCT200,0.00,VWS V14.01,2013-08-19 11:24:00,
2013-08-19 07:29:00,62.4,58.8,29.63,SW,232,3.6,4.9,88,0.00,,SCT200,0.00,VWS V14.01,2013-08-19 11:29:00,
2013-08-19 07:34:00,62.8,59.2,29.63,SW,221,3.1,5.4,88,0.00,,SCT200,0.00,VWS V14.01,2013-08-19 11:34:00,
2013-08-19 07:39:00,63.1,59.5,29.63,SSW,212,3.6,4.0,88,0.00,,SCT200,0.00,VWS V14.01,2013-08-19 11:39:00,
2013-08-19 07:44:00,63.5,59.9,29.63,SSW,213,4.0,6.3,88,0.00,,SCT200,0.00,VWS V14.01,2013-08-19 11:44:00,
2013-08-19 07:49:00,63.9,60.2,29.63,SW,223,3.1,6.3,88,0.00,,SCT200,0.00,VWS V14.01,2013-08-19 11:49:00,
2013-08-19 07:54:00,64.2,60.6,29.63,SW,217,3.6,6.3,88,0.00,,SCT200,0.00,VWS V14.01,2013-08-19 11:54:00,
2013-08-19 07:59:00,64.6,60.6,29.63,SW,217,5.4,6.3,87,0.00,,SCT200,0.00,VWS V14.01,2013-08-19 11:59:00,
2013-08-19 08:04:00,64.8,60.8,29.63,SW,236,5.4,6.3,87,0.00,,SCT150,0.00,VWS V14.01,2013-08-19 12:04:00,
2013-08-19 08:09:00,65.1,61.2,29.63,SW,226,5.8,8.3,87,0.00,,SCT150,0.00,VWS V14.01,2013-08-19 12:09:00,
2013-08-19 08:14:00,65.5,61.5,29.63,SW,223,5.8,6.3,87,0.00,,SCT150,0.00,VWS V14.01,2013-08-19 12:14:00,
2013-08-19 08:19:00,65.8,61.9,29.63,SW,221,5.4,5.8,87,0.00,,SCT150,0.00,VWS V14.01,2013-08-19 12:19:00,
2013-08-19 08:24:00,66.4,62.4,29.63,WSW,245,5.4,6.3,87,0.00,,SCT150,0.00,VWS V14.01,2013-08-19 12:24:00,
2013-08-19 08:29:00,66.7,62.4,29.63,SW,227,4.9,8.1,86,0.00,,SCT150,0.00,VWS V14.01,2013-08-19 12:29:00,
2013-08-19 08:34:00,66.9,62.9,29.63,SW,215,3.6,6.3,87,0.00,,SCT150,0.00,VWS V14.01,2013-08-19 12:34:00,
2013-08-19 08:39:00,67.5,63.5,29.63,WSW,244,5.4,8.1,87,0.00,,SCT150,0.00,VWS V14.01,2013-08-19 12:39:00,
2013-08-19 08:44:00,67.8,63.8,29.63,SW,217,5.8,8.1,87,0.00,,SCT150,0.00,VWS V14.01,2013-08-19 12:44:00,
2013-08-19 08:49:00,68.2,64.2,29.63,SW,235,5.4,7.6,87,0.00,,SCT150,0.00,VWS V14.01,2013-08-19 12:49:00,
2013-08-19 08:54:00,68.7,64.7,29.63,SSW,203,4.9,6.3,87,0.00,,SCT150,0.00,VWS V14.01,2013-08-19 12:54:00,
2013-08-19 08:59:00,69.1,64.7,29.63,SSW,206,5.8,6.7,86,0.00,,SCT150,0.00,VWS V14.01,2013-08-19 12:59:00,
2013-08-19 09:05:00,69.4,65.1,29.63,West,266,5.8,10.1,86,0.00,,SCT150,0.00,VWS V14.01,2013-08-19 13:05:00,
2013-08-19 09:10:00,69.8,65.1,29.63,SW,217,6.7,6.7,85,0.00,,SCT150,0.00,VWS V14.01,2013-08-19 13:10:00,
2013-08-19 09:15:00,70.0,64.9,29.63,SSW,212,7.6,8.1,84,0.00,,SCT150,0.00,VWS V14.01,2013-08-19 13:15:00,
2013-08-19 09:20:00,70.3,64.9,29.63,WSW,249,5.8,8.3,83,0.00,,SCT150,0.00,VWS V14.01,2013-08-19 13:20:00,
2013-08-19 09:25:00,70.7,65.3,29.63,WNW,288,6.3,8.3,83,0.00,,SCT150,0.00,VWS V14.01,2013-08-19 13:25:00,
2013-08-19 09:30:00,71.1,64.9,29.63,SW,223,8.7,8.7,81,0.00,,SCT150,0.00,VWS V14.01,2013-08-19 13:30:00,
2013-08-19 09:35:00,70.9,63.7,29.63,SSW,203,6.3,8.3,78,0.00,,SCT210,0.00,VWS V14.01,2013-08-19 13:35:00,
2013-08-19 09:40:00,71.4,64.2,29.63,WSW,251,5.8,6.3,78,0.00,,SCT210,0.00,VWS V14.01,2013-08-19 13:40:00,
2013-08-19 09:45:00,71.6,63.3,29.63,SW,235,5.8,10.1,75,0.00,,SCT210,0.00,VWS V14.01,2013-08-19 13:45:00,
2013-08-19 09:50:00,71.8,63.1,29.63,WSW,247,2.7,8.3,74,0.00,,SCT210,0.00,VWS V14.01,2013-08-19 13:50:00,
2013-08-19 09:55:00,71.8,63.1,29.63,West,270,5.4,10.1,74,0.00,,SCT210,0.00,VWS V14.01,2013-08-19 13:55:00,
2013-08-19 10:00:00,71.8,62.3,29.63,WSW,243,5.8,7.6,72,0.00,,SCT210,0.00,VWS V14.01,2013-08-19 14:00:00,
2013-08-19 10:05:00,72.5,63.8,29.63,WSW,251,5.8,8.3,74,0.00,,SCT210,0.00,VWS V14.01,2013-08-19 14:05:00,
2013-08-19 10:10:00,72.7,63.5,29.63,WSW,243,3.1,3.1,73,0.00,,SCT210,0.00,VWS V14.01,2013-08-19 14:10:00,
2013-08-19 10:15:00,73.0,64.3,29.63,WSW,238,4.0,6.3,74,0.00,,SCT210,0.00,VWS V14.01,2013-08-19 14:15:00,
2013-08-19 10:20:00,73.0,62.7,29.63,WSW,248,5.4,5.4,70,0.00,,SCT210,0.00,VWS V14.01,2013-08-19 14:20:00,
2013-08-19 10:25:00,73.2,62.0,29.63,SSW,207,6.3,6.3,68,0.00,,SCT210,0.00,VWS V14.01,2013-08-19 14:25:00,
2013-08-19 10:30:00,73.4,61.4,29.63,WSW,245,8.3,9.6,66,0.00,,SCT210,0.00,VWS V14.01,2013-08-19 14:30:00,
2013-08-19 10:35:00,73.9,61.9,29.63,SSW,209,3.1,7.6,66,0.00,,SCT200,0.00,VWS V14.01,2013-08-19 14:35:00,
2013-08-19 10:40:00,74.3,63.1,29.63,SW,214,5.4,8.3,68,0.00,,SCT200,0.00,VWS V14.01,2013-08-19 14:40:00,
2013-08-19 10:45:00,74.5,62.4,29.63,West,259,6.3,8.1,66,0.00,,SCT200,0.00,VWS V14.01,2013-08-19 14:45:00,
2013-08-19 10:50:00,74.5,61.5,29.63,SW,230,6.3,8.7,64,0.00,,SCT200,0.00,VWS V14.01,2013-08-19 14:50:00,
2013-08-19 10:55:00,74.8,61.4,29.60,SW,218,5.8,8.1,63,0.00,,SCT200,0.00,VWS V14.01,2013-08-19 14:55:00,
2013-08-19 11:00:00,75.2,60.8,29.60,WSW,249,4.9,8.3,61,0.00,,SCT200,0.00,VWS V14.01,2013-08-19 15:00:00,
2013-08-19 11:05:00,75.6,60.7,29.60,SW,218,8.1,9.6,60,0.00,,SCT200,0.00,VWS V14.01,2013-08-19 15:05:00,
2013-08-19 11:10:00,75.4,60.1,29.60,SSW,206,3.1,5.8,59,0.00,,SCT200,0.00,VWS V14.01,2013-08-19 15:10:00,
2013-08-19 11:16:00,75.4,60.5,29.60,West,281,5.8,5.8,60,0.00,,SCT200,0.00,VWS V14.01,2013-08-19 15:16:00,
2013-08-19 11:21:00,75.4,60.5,29.60,SW,231,3.6,5.8,60,0.00,,SCT200,0.00,VWS V14.01,2013-08-19 15:21:00,
2013-08-19 11:26:00,75.6,60.7,29.60,West,280,2.2,2.7,60,0.00,,SCT200,0.00,VWS V14.01,2013-08-19 15:26:00,
2013-08-19 11:31:00,76.1,60.8,29.60,SW,216,4.9,5.4,59,0.00,,SCT200,0.00,VWS V14.01,2013-08-19 15:31:00,
2013-08-19 11:36:00,76.6,61.2,29.60,SW,215,6.3,8.3,59,0.00,,SCT200,0.00,VWS V14.01,2013-08-19 15:36:00,
2013-08-19 11:41:00,77.0,60.6,29.60,SSW,199,4.0,8.1,57,0.00,,SCT200,0.00,VWS V14.01,2013-08-19 15:41:00,
2013-08-19 11:46:00,76.8,60.9,29.60,South,186,2.7,5.4,58,0.00,,SCT200,0.00,VWS V14.01,2013-08-19 15:46:00,
2013-08-19 11:51:00,76.8,60.5,29.60,WNW,301,4.0,8.3,57,0.00,,SCT200,0.00,VWS V14.01,2013-08-19 15:51:00,
2013-08-19 11:56:00,76.6,59.8,29.60,SW,215,2.7,4.0,56,0.00,,SCT200,0.00,VWS V14.01,2013-08-19 15:56:00,
2013-08-19 12:01:00,76.8,58.9,29.60,NNW,333,4.9,5.4,54,0.00,,SCT200,0.00,VWS V14.01,2013-08-19 16:01:00,
2013-08-19 12:06:00,77.5,60.6,29.60,West,260,0.0,5.8,56,0.00,,SCT200,0.00,VWS V14.01,2013-08-19 16:06:00,
2013-08-19 12:11:00,77.4,58.4,29.60,West,265,3.6,7.6,52,0.00,,SCT200,0.00,VWS V14.01,2013-08-19 16:11:00,
2013-08-19 12:16:00,76.3,56.8,29.60,NW,309,4.0,7.6,51,0.00,,SCT200,0.00,VWS V14.01,2013-08-19 16:16:00,
2013-08-19 12:21:00,76.6,58.2,29.60,NNW,330,2.2,4.0,53,0.00,,SCT200,0.00,VWS V14.01,2013-08-19 16:21:00,
2013-08-19 12:26:00,76.5,57.5,29.60,West,265,4.0,4.0,52,0.00,,SCT200,0.00,VWS V14.01,2013-08-19 16:26:00,
2013-08-19 12:31:00,77.0,57.5,29.60,WSW,252,0.0,5.8,51,0.00,,SCT200,0.00,VWS V14.01,2013-08-19 16:31:00,
2013-08-19 12:37:00,77.4,57.8,29.60,SW,217,6.3,6.3,51,0.00,,SCT210,0.00,VWS V14.01,2013-08-19 16:37:00,
2013-08-19 12:42:00,77.5,58.5,29.60,SW,235,3.1,5.4,52,0.00,,SCT210,0.00,VWS V14.01,2013-08-19 16:42:00,
2013-08-19 12:47:00,76.8,57.9,29.60,NW,305,4.9,5.4,52,0.00,,SCT210,0.00,VWS V14.01,2013-08-19 16:47:00,
2013-08-19 12:52:00,77.2,58.2,29.60,NW,322,6.7,7.2,52,0.00,,SCT210,0.00,VWS V14.01,2013-08-19 16:52:00,
2013-08-19 12:57:00,77.5,59.1,29.60,WNW,298,4.9,8.1,53,0.00,,SCT210,0.00,VWS V14.01,2013-08-19 16:57:00,
2013-08-19 13:02:00,78.1,59.0,29.60,SW,224,0.0,7.2,52,0.00,,SCT210,0.00,VWS V14.01,2013-08-19 17:02:00,
2013-08-19 13:07:00,77.7,58.7,29.60,WSW,250,4.9,5.4,52,0.00,,SCT210,0.00,VWS V14.01,2013-08-19 17:07:00,
2013-08-19 13:12:00,78.4,59.9,29.60,WNW,291,3.6,7.6,53,0.00,,SCT210,0.00,VWS V14.01,2013-08-19 17:12:00,
2013-08-19 13:17:00,78.8,59.7,29.60,West,278,4.0,8.1,52,0.00,,SCT210,0.00,VWS V14.01,2013-08-19 17:17:00,
2013-08-19 13:23:00,78.6,59.0,29.60,North,0,4.0,7.6,51,0.00,,SCT210,0.00,VWS V14.01,2013-08-19 17:23:00,
2013-08-19 13:28:00,78.6,59.0,29.60,North,357,6.3,6.3,51,0.00,,SCT210,0.00,VWS V14.01,2013-08-19 17:28:00,
2013-08-19 13:33:00,78.1,59.0,29.60,NNW,335,5.4,6.3,52,0.00,,SCT210,0.00,VWS V14.01,2013-08-19 17:33:00,
2013-08-19 13:38:00,77.9,58.9,29.60,NNE,20,4.0,6.3,52,0.00,,SCT210,0.00,VWS V14.01,2013-08-19 17:38:00,
2013-08-19 13:43:00,78.6,58.4,29.60,NW,311,4.0,7.6,50,0.00,,SCT210,0.00,VWS V14.01,2013-08-19 17:43:00,
2013-08-19 13:48:00,78.6,58.4,29.60,WSW,254,2.7,8.1,50,0.00,,SCT210,0.00,VWS V14.01,2013-08-19 17:48:00,
2013-08-19 13:53:00,79.0,59.3,29.60,North,0,4.9,7.6,51,0.00,,SCT210,0.00,VWS V14.01,2013-08-19 17:53:00,
2013-08-19 13:58:00,79.2,58.9,29.60,NNW,330,3.1,3.1,50,0.00,,SCT210,0.00,VWS V14.01,2013-08-19 17:58:00,
2013-08-19 14:03:00,78.4,58.8,29.60,SSW,198,0.0,0.0,51,0.00,,SCT210,0.00,VWS V14.01,2013-08-19 18:03:00,
2013-08-19 14:08:00,78.3,58.1,29.57,West,265,3.6,3.6,50,0.00,,SCT210,0.00,VWS V14.01,2013-08-19 18:08:00,
2013-08-19 14:13:00,77.9,57.8,29.57,NNW,334,3.6,6.3,50,0.00,,SCT210,0.00,VWS V14.01,2013-08-19 18:13:00,
2013-08-19 14:18:00,78.6,59.5,29.57,WNW,302,5.8,6.3,52,0.00,,SCT210,0.00,VWS V14.01,2013-08-19 18:18:00,
2013-08-19 14:23:00,78.8,58.6,29.60,NW,325,5.8,8.3,50,0.00,,SCT210,0.00,VWS V14.01,2013-08-19 18:23:00,
2013-08-19 14:28:00,78.3,58.1,29.60,NNW,335,8.1,10.1,50,0.00,,SCT210,0.00,VWS V14.01,2013-08-19 18:28:00,
2013-08-19 14:33:00,77.5,58.0,29.60,NNW,338,2.7,2.7,51,0.00,,SCT210,0.00,VWS V14.01,2013-08-19 18:33:00,
2013-08-19 14:38:00,77.5,58.0,29.57,NNW,343,2.7,6.3,51,0.00,,SCT210,0.00,VWS V14.01,2013-08-19 18:38:00,
2013-08-19 14:43:00,78.4,57.7,29.57,NNW,341,5.4,5.4,49,0.00,,SCT210,0.00,VWS V14.01,2013-08-19 18:43:00,
2013-08-19 14:48:00,78.3,57.5,29.57,SW,235,4.0,4.0,49,0.00,,SCT210,0.00,VWS V14.01,2013-08-19 18:48:00,
2013-08-19 14:53:00,78.6,58.4,29.57,SW,219,5.8,6.3,50,0.00,,SCT210,0.00,VWS V14.01,2013-08-19 18:53:00,
2013-08-19 14:58:00,78.8,57.5,29.57,WNW,300,5.4,5.4,48,0.00,,SCT210,0.00,VWS V14.01,2013-08-19 18:58:00,
2013-08-19 15:03:00,78.6,58.4,29.57,NNW,338,5.8,6.3,50,0.00,,SCT210,0.00,VWS V14.01,2013-08-19 19:03:00,
2013-08-19 15:08:00,78.4,58.3,29.57,NNW,338,4.9,4.9,50,0.00,,SCT210,0.00,VWS V14.01,2013-08-19 19:08:00,
2013-08-19 15:13:00,78.8,58.6,29.57,North,0,4.0,5.8,50,0.00,,SCT210,0.00,VWS V14.01,2013-08-19 19:13:00,
2013-08-19 15:19:00,78.4,58.3,29.57,NNW,334,4.0,4.0,50,0.00,,SCT210,0.00,VWS V14.01,2013-08-19 19:19:00,
2013-08-19 15:24:00,78.4,58.3,29.57,NW,324,4.9,4.9,50,0.00,,SCT210,0.00,VWS V14.01,2013-08-19 19:24:00,
2013-08-19 15:29:00,78.6,59.0,29.57,NNW,345,7.6,8.3,51,0.00,,SCT210,0.00,VWS V14.01,2013-08-19 19:29:00,
2013-08-19 15:34:00,78.1,58.5,29.57,NNW,328,7.6,7.6,51,0.00,,SCT110,0.00,VWS V14.01,2013-08-19 19:34:00,
2013-08-19 15:39:00,79.0,59.9,29.57,West,262,3.6,6.3,52,0.00,,SCT110,0.00,VWS V14.01,2013-08-19 19:39:00,
2013-08-19 15:44:00,78.8,59.2,29.57,North,357,5.4,5.4,51,0.00,,SCT110,0.00,VWS V14.01,2013-08-19 19:44:00,
2013-08-19 15:49:00,78.8,59.7,29.57,NW,314,5.4,7.6,52,0.00,,SCT110,0.00,VWS V14.01,2013-08-19 19:49:00,
2013-08-19 15:54:00,78.6,59.0,29.57,NNW,328,8.1,10.1,51,0.00,,SCT110,0.00,VWS V14.01,2013-08-19 19:54:00,
2013-08-19 15:59:00,78.3,59.2,29.57,NW,325,4.5,5.4,52,0.00,,SCT110,0.00,VWS V14.01,2013-08-19 19:59:00,
2013-08-19 16:04:00,77.7,58.7,29.57,NNW,332,5.4,8.7,52,0.00,,SCT110,0.00,VWS V14.01,2013-08-19 20:04:00,
2013-08-19 16:09:00,78.6,59.5,29.57,NNW,343,5.4,5.8,52,0.00,,SCT110,0.00,VWS V14.01,2013-08-19 20:09:00,
2013-08-19 16:14:00,79.0,59.3,29.57,NW,312,6.3,6.3,51,0.00,,SCT110,0.00,VWS V14.01,2013-08-19 20:14:00,
2013-08-19 16:19:00,78.1,59.0,29.57,WSW,249,3.1,5.4,52,0.00,,SCT110,0.00,VWS V14.01,2013-08-19 20:19:00,
2013-08-19 16:24:00,78.8,59.7,29.57,WSW,257,2.2,5.4,52,0.00,,SCT110,0.00,VWS V14.01,2013-08-19 20:24:00,
2013-08-19 16:30:00,79.3,59.7,29.57,WSW,237,7.6,7.6,51,0.00,,SCT110,0.00,VWS V14.01,2013-08-19 20:30:00,
2013-08-19 16:35:00,79.3,59.7,29.57,West,265,5.8,5.8,51,0.00,,SCT250,0.00,VWS V14.01,2013-08-19 20:35:00,
2013-08-19 16:40:00,79.0,59.3,29.57,WSW,254,5.4,6.3,51,0.00,,SCT250,0.00,VWS V14.01,2013-08-19 20:40:00,
2013-08-19 16:45:00,79.5,59.8,29.57,SW,217,5.8,6.3,51,0.00,,SCT250,0.00,VWS V14.01,2013-08-19 20:45:00,
2013-08-19 16:50:00,79.0,59.3,29.57,NNW,337,6.3,6.3,51,0.00,,SCT250,0.00,VWS V14.01,2013-08-19 20:50:00,
2013-08-19 16:55:00,79.0,58.8,29.57,WNW,286,4.9,7.6,50,0.00,,SCT250,0.00,VWS V14.01,2013-08-19 20:55:00,
2013-08-19 17:00:00,79.2,58.9,29.57,SW,234,4.9,7.2,50,0.00,,SCT250,0.00,VWS V14.01,2013-08-19 21:00:00,
2013-08-19 17:05:00,79.5,59.8,29.57,West,280,2.7,3.6,51,0.00,,SCT250,0.00,VWS V14.01,2013-08-19 21:05:00,
2013-08-19 17:10:00,79.7,60.0,29.57,North,353,0.0,0.0,51,0.00,,SCT250,0.00,VWS V14.01,2013-08-19 21:10:00,
2013-08-19 17:15:00,79.2,58.9,29.57,NNE,14,5.8,5.8,50,0.00,,SCT250,0.00,VWS V14.01,2013-08-19 21:15:00,
2013-08-19 17:20:00,78.6,58.4,29.57,NW,304,3.6,6.3,50,0.00,,SCT250,0.00,VWS V14.01,2013-08-19 21:20:00,
2013-08-19 17:25:00,78.8,58.6,29.57,West,266,8.1,8.1,50,0.00,,SCT250,0.00,VWS V14.01,2013-08-19 21:25:00,
2013-08-19 17:30:00,78.4,58.3,29.57,West,261,2.7,3.1,50,0.00,,SCT250,0.00,VWS V14.01,2013-08-19 21:30:00,
2013-08-19 17:35:00,77.9,58.3,29.57,West,272,3.6,6.3,51,0.00,,FEW050,0.00,VWS V14.01,2013-08-19 21:35:00,
2013-08-19 17:40:00,77.7,58.2,29.57,North,357,2.7,6.3,51,0.00,,FEW050,0.00,VWS V14.01,2013-08-19 21:40:00,
2013-08-19 17:45:00,78.1,58.5,29.57,NNW,330,2.2,4.0,51,0.00,,FEW050,0.00,VWS V14.01,2013-08-19 21:45:00,
2013-08-19 17:50:00,77.9,58.3,29.57,WSW,257,3.6,6.7,51,0.00,,FEW050,0.00,VWS V14.01,2013-08-19 21:50:00,
2013-08-19 17:55:00,77.9,58.3,29.57,NW,320,4.0,6.3,51,0.00,,FEW050,0.00,VWS V14.01,2013-08-19 21:55:00,
2013-08-19 18:00:00,77.9,57.8,29.57,West,265,5.8,5.8,50,0.00,,FEW050,0.00,VWS V14.01,2013-08-19 22:00:00,
2013-08-19 18:05:00,78.3,58.7,29.57,NNW,337,3.1,4.9,51,0.00,,FEW050,0.00,VWS V14.01,2013-08-19 22:05:00,
2013-08-19 18:11:00,78.3,58.7,29.57,North,8,0.0,0.0,51,0.00,,FEW050,0.00,VWS V14.01,2013-08-19 22:11:00,
2013-08-19 18:16:00,78.3,58.7,29.57,SW,224,2.2,2.7,51,0.00,,FEW050,0.00,VWS V14.01,2013-08-19 22:16:00,
2013-08-19 18:21:00,78.1,58.5,29.57,NW,323,0.0,4.9,51,0.00,,FEW050,0.00,VWS V14.01,2013-08-19 22:21:00,
2013-08-19 18:26:00,78.1,58.5,29.57,West,270,0.0,6.3,51,0.00,,FEW050,0.00,VWS V14.01,2013-08-19 22:26:00,
2013-08-19 18:31:00,77.9,58.3,29.57,SW,216,6.3,6.3,51,0.00,,FEW050,0.00,VWS V14.01,2013-08-19 22:31:00,
2013-08-19 18:36:00,77.7,58.2,29.57,NW,317,3.6,6.3,51,0.00,,FEW046,0.00,VWS V14.01,2013-08-19 22:36:00,
2013-08-19 18:41:00,77.5,58.0,29.57,WNW,290,3.6,5.4,51,0.00,,FEW046,0.00,VWS V14.01,2013-08-19 22:41:00,
2013-08-19 18:46:00,77.5,58.0,29.57,NW,316,2.2,4.0,51,0.00,,FEW046,0.00,VWS V14.01,2013-08-19 22:46:00,
2013-08-19 18:51:00,77.2,57.7,29.57,West,275,0.0,7.6,51,0.00,,FEW046,0.00,VWS V14.01,2013-08-19 22:51:00,
2013-08-19 18:56:00,77.2,57.7,29.57,WSW,245,3.1,8.1,51,0.00,,FEW046,0.00,VWS V14.01,2013-08-19 22:56:00,
2013-08-19 19:01:00,77.0,57.5,29.57,WSW,254,6.3,6.3,51,0.00,,FEW046,0.00,VWS V14.01,2013-08-19 23:01:00,
2013-08-19 19:06:00,76.8,57.9,29.57,WSW,245,4.9,7.6,52,0.00,,FEW046,0.00,VWS V14.01,2013-08-19 23:06:00,
2013-08-19 19:11:00,76.5,57.5,29.57,SW,231,4.0,5.8,52,0.00,,FEW046,0.00,VWS V14.01,2013-08-19 23:11:00,
2013-08-19 19:16:00,76.1,57.2,29.57,SSW,209,4.0,4.9,52,0.00,,FEW046,0.00,VWS V14.01,2013-08-19 23:16:00,
2013-08-19 19:21:00,75.6,56.7,29.57,SSW,206,2.7,5.4,52,0.00,,FEW046,0.00,VWS V14.01,2013-08-19 23:21:00,
2013-08-19 19:26:00,75.4,56.5,29.54,WSW,253,2.7,2.7,52,0.00,,FEW046,0.00,VWS V14.01,2013-08-19 23:26:00,
2013-08-19 19:31:00,75.0,56.8,29.54,WSW,255,4.5,4.5,53,0.00,,FEW046,0.00,VWS V14.01,2013-08-19 23:31:00,
2013-08-19 19:36:00,74.7,56.4,29.54,WSW,240,2.2,4.9,53,0.00,,FEW250,0.00,VWS V14.01,2013-08-19 23:36:00,
2013-08-19 19:41:00,74.5,56.2,29.57,WNW,287,4.9,5.4,53,0.00,,FEW250,0.00,VWS V14.01,2013-08-19 23:41:00,
2013-08-19 19:46:00,74.1,56.4,29.57,SW,223,0.0,3.1,54,0.00,,FEW250,0.00,VWS V14.01,2013-08-19 23:46:00,
2013-08-19 19:51:00,73.8,56.1,29.57,WSW,244,3.1,3.6,54,0.00,,FEW250,0.00,VWS V14.01,2013-08-19 23:51:00,
2013-08-19 19:57:00,73.4,55.8,29.57,WSW,239,0.0,3.6,54,0.00,,FEW250,0.00,VWS V14.01,2013-08-19 23:57:00,
2013-08-19 20:02:00,72.9,55.8,29.57,SW,232,2.2,3.6,55,0.00,,FEW250,0.00,VWS V14.01,2013-08-20 00:02:00,
2013-08-19 20:07:00,72.7,55.6,29.57,SW,231,4.9,5.8,55,0.00,,FEW250,0.00,VWS V14.01,2013-08-20 00:07:00,
2013-08-19 20:12:00,72.3,55.8,29.57,SW,232,3.1,3.1,56,0.00,,FEW250,0.00,VWS V14.01,2013-08-20 00:12:00,
2013-08-19 20:17:00,72.0,55.4,29.57,SW,233,3.1,4.0,56,0.00,,FEW250,0.00,VWS V14.01,2013-08-20 00:17:00,
2013-08-19 20:22:00,71.4,55.4,29.57,SW,220,0.0,3.6,57,0.00,,FEW250,0.00,VWS V14.01,2013-08-20 00:22:00,
2013-08-19 20:27:00,70.9,55.4,29.57,WSW,239,2.7,3.6,58,0.00,,FEW250,0.00,VWS V14.01,2013-08-20 00:27:00,
2013-08-19 20:32:00,70.5,55.0,29.57,SW,218,0.0,4.0,58,0.00,,FEW250,0.00,VWS V14.01,2013-08-20 00:32:00,
2013-08-19 20:37:00,70.3,55.3,29.57,WSW,257,4.0,4.9,59,0.00,,SCT250,0.00,VWS V14.01,2013-08-20 00:37:00,
2013-08-19 20:42:00,70.2,55.2,29.57,SW,228,3.6,5.4,59,0.00,,SCT250,0.00,VWS V14.01,2013-08-20 00:42:00,
2013-08-19 20:47:00,69.6,55.1,29.57,SSW,208,3.6,4.0,60,0.00,,SCT250,0.00,VWS V14.01,2013-08-20 00:47:00,
2013-08-19 20:52:00,69.3,54.8,29.57,SW,219,4.0,4.0,60,0.00,,SCT250,0.00,VWS V14.01,2013-08-20 00:52:00,
2013-08-19 20:57:00,69.4,55.4,29.57,SSW,202,3.6,5.8,61,0.00,,SCT250,0.00,VWS V14.01,2013-08-20 00:57:00,
2013-08-19 21:02:00,69.4,55.4,29.57,SSW,200,3.6,6.3,61,0.00,,SCT250,0.00,VWS V14.01,2013-08-20 01:02:00,
2013-08-19 21:07:00,69.8,55.8,29.57,SSW,207,4.9,5.8,61,0.00,,SCT250,0.00,VWS V14.01,2013-08-20 01:07:00,
2013-08-19 21:12:00,69.4,55.9,29.57,SW,214,4.0,5.4,62,0.00,,SCT250,0.00,VWS V14.01,2013-08-20 01:12:00,
2013-08-19 21:17:00,69.4,55.9,29.57,SSW,208,3.1,5.4,62,0.00,,SCT250,0.00,VWS V14.01,2013-08-20 01:17:00,
2013-08-19 21:22:00,69.3,56.1,29.57,SW,219,4.9,5.4,63,0.00,,SCT250,0.00,VWS V14.01,2013-08-20 01:22:00,
2013-08-19 21:27:00,69.1,56.0,29.57,SSW,210,4.0,4.9,63,0.00,,SCT250,0.00,VWS V14.01,2013-08-20 01:27:00,
2013-08-19 21:32:00,68.9,55.8,29.57,West,261,3.1,5.4,63,0.00,,SCT250,0.00,VWS V14.01,2013-08-20 01:32:00,
2013-08-19 21:37:00,68.5,55.9,29.57,SW,222,5.4,5.8,64,0.00,,SCT250,0.00,VWS V14.01,2013-08-20 01:37:00,
2013-08-19 21:42:00,68.5,55.9,29.57,WSW,243,4.9,5.8,64,0.00,,SCT250,0.00,VWS V14.01,2013-08-20 01:42:00,
2013-08-19 21:47:00,68.4,55.7,29.57,SW,222,3.6,5.4,64,0.00,,SCT250,0.00,VWS V14.01,2013-08-20 01:47:00,
2013-08-19 21:52:00,68.2,56.0,29.57,SW,221,4.0,5.4,65,0.00,,SCT250,0.00,VWS V14.01,2013-08-20 01:52:00,
2013-08-19 21:57:00,67.8,56.1,29.57,SW,222,4.0,5.8,66,0.00,,SCT250,0.00,VWS V14.01,2013-08-20 01:57:00,
2013-08-19 22:02:00,67.8,56.1,29.57,SSW,207,4.0,6.3,66,0.00,,SCT250,0.00,VWS V14.01,2013-08-20 02:02:00,
2013-08-19 22:07:00,67.6,56.3,29.57,SW,217,3.6,5.4,67,0.00,,SCT250,0.00,VWS V14.01,2013-08-20 02:07:00,
2013-08-19 22:12:00,67.5,56.1,29.57,SW,217,3.6,5.8,67,0.00,,SCT250,0.00,VWS V14.01,2013-08-20 02:12:00,
2013-08-19 22:17:00,67.3,56.4,29.57,SW,216,3.6,5.4,68,0.00,,SCT250,0.00,VWS V14.01,2013-08-20 02:17:00,
2013-08-19 22:22:00,67.3,56.4,29.57,SW,226,4.0,5.8,68,0.00,,SCT250,0.00,VWS V14.01,2013-08-20 02:22:00,
2013-08-19 22:27:00,66.9,56.0,29.57,SW,218,4.9,5.4,68,0.00,,SCT250,0.00,VWS V14.01,2013-08-20 02:27:00,
2013-08-19 22:32:00,66.7,56.3,29.57,SW,221,3.6,5.4,69,0.00,,SCT250,0.00,VWS V14.01,2013-08-20 02:32:00,
2013-08-19 22:37:00,66.7,56.3,29.57,SW,219,3.6,5.4,69,0.00,,FEW250,0.00,VWS V14.01,2013-08-20 02:37:00,
2013-08-19 22:42:00,66.6,56.1,29.57,SSW,212,4.0,4.9,69,0.00,,FEW250,0.00,VWS V14.01,2013-08-20 02:42:00,
2013-08-19 22:47:00,66.4,56.3,29.57,SSW,212,4.5,5.4,70,0.00,,FEW250,0.00,VWS V14.01,2013-08-20 02:47:00,
2013-08-19 22:52:00,66.4,56.3,29.57,SW,217,5.8,5.8,70,0.00,,FEW250,0.00,VWS V14.01,2013-08-20 02:52:00,
2013-08-19 22:57:00,66.2,56.1,29.57,SW,222,4.0,6.3,70,0.00,,FEW250,0.00,VWS V14.01,2013-08-20 02:57:00,
2013-08-19 23:02:00,66.0,56.7,29.57,SW,217,4.5,6.3,72,0.00,,FEW250,0.00,VWS V14.01,2013-08-20 03:02:00,
2013-08-19 23:07:00,66.0,56.7,29.57,SW,214,4.9,6.3,72,0.00,,FEW250,0.00,VWS V14.01,2013-08-20 03:07:00,
2013-08-19 23:13:00,66.0,57.1,29.57,SSW,197,4.0,5.4,73,0.00,,FEW250,0.00,VWS V14.01,2013-08-20 03:13:00,
2013-08-19 23:18:00,65.8,57.0,29.57,SW,215,4.0,5.8,73,0.00,,FEW250,0.00,VWS V14.01,2013-08-20 03:18:00,
2013-08-19 23:23:00,65.8,57.3,29.57,SW,214,4.9,5.8,74,0.00,,FEW250,0.00,VWS V14.01,2013-08-20 03:23:00,
2013-08-19 23:28:00,65.7,57.2,29.57,SW,225,3.6,6.3,74,0.00,,FEW250,0.00,VWS V14.01,2013-08-20 03:28:00,
2013-08-19 23:33:00,65.5,57.4,29.57,SW,222,5.4,6.3,75,0.00,,FEW250,0.00,VWS V14.01,2013-08-20 03:33:00,
2013-08-19 23:38:00,65.5,57.4,29.57,SW,215,5.4,5.8,75,0.00,,CLR,0.00,VWS V14.01,2013-08-20 03:38:00,
2013-08-19 23:43:00,65.5,57.7,29.57,SW,226,4.9,6.3,76,0.00,,CLR,0.00,VWS V14.01,2013-08-20 03:43:00,
2013-08-19 23:48:00,65.3,57.5,29.57,SSW,208,5.4,6.3,76,0.00,,CLR,0.00,VWS V14.01,2013-08-20 03:48:00,
2013-08-19 23:53:00,65.3,57.5,29.57,WSW,245,4.9,4.9,76,0.00,,CLR,0.00,VWS V14.01,2013-08-20 03:53:00,
2013-08-19 23:58:00,65.1,57.7,29.57,WSW,249,4.0,6.3,77,0.00,,CLR,0.00,VWS V14.01,2013-08-20 03:58:00,